Time;durP1;ratioP1;P1;durP2;ratioP2;P2;SDS_P1;SDS_P2;PMS_P1;PMS_P2;Temp;Humidity;BMP_temperature;BMP_pressure;BME280_temperature;BME280_humidity;BME280_pressure;Samples;Min_cycle;Max_cycle;Signal;HPM_P1;HPM_P2
2022/09/06 00:01:39;;;;;;;11.85;4.40;;;;;;;14.92;70.74;94607.97;5005451;28;20221;-80
2022/09/06 00:04:04;;;;;;;7.90;3.90;;;;;;;14.87;71.13;94603.59;5005191;28;20463;-78
2022/09/06 00:06:29;;;;;;;11.00;4.57;;;;;;;14.89;70.88;94605.94;5005182;28;20029;-79
2022/09/06 00:08:55;;;;;;;11.35;5.10;;;;;;;14.84;71.24;94609.59;5005308;28;20026;-79
2022/09/06 00:11:21;;;;;;;8.02;4.57;;;;;;;14.79;71.46;94610.56;5005379;28;20026;-78
2022/09/06 00:13:47;;;;;;;7.43;4.50;;;;;;;14.78;71.74;94606.31;5005093;28;20034;-77
2022/09/06 00:16:19;;;;;;;6.97;4.60;;;;;;;14.81;71.67;94612.91;5004867;28;20097;-78
2022/09/06 00:18:44;;;;;;;10.23;4.47;;;;;;;14.82;71.52;94612.59;5004892;28;20053;-80
2022/09/06 00:21:17;;;;;;;9.52;4.88;;;;;;;14.79;71.73;94609.78;5005046;28;20065;-79
2022/09/06 00:23:42;;;;;;;9.35;4.68;;;;;;;14.81;72.04;94610.25;5004937;28;20022;-78
2022/09/06 00:26:08;;;;;;;10.32;4.75;;;;;;;14.80;71.97;94608.69;5004942;28;20026;-78
2022/09/06 00:28:33;;;;;;;11.93;4.82;;;;;;;14.79;72.06;94597.13;5005069;28;20093;-79
2022/09/06 00:31:17;;;;;;;9.48;4.63;;;;;;;14.78;72.10;94602.84;5004708;28;20069;-79
2022/09/06 00:33:43;;;;;;;11.57;4.82;;;;;;;14.69;72.45;94599.38;5004799;28;20228;-78
2022/09/06 00:36:10;;;;;;;8.57;4.22;;;;;;;14.71;72.44;94607.91;5004591;28;20154;-79
2022/09/06 00:38:36;;;;;;;7.57;4.55;;;;;;;14.73;72.42;94593.06;5004542;28;20050;-79
2022/09/06 00:41:02;;;;;;;12.30;4.70;;;;;;;14.73;72.36;94605.69;5004692;28;20022;-82
2022/09/06 00:43:27;;;;;;;9.35;4.50;;;;;;;14.77;72.53;94607.41;5004839;28;20022;-83
2022/09/06 00:45:53;;;;;;;7.97;4.15;;;;;;;14.78;72.44;94589.44;5004730;28;20336;-83
2022/09/06 00:48:20;;;;;;;11.05;4.57;;;;;;;14.81;72.18;94594.13;5004489;28;20269;-82
2022/09/06 00:50:48;;;;;;;10.40;4.22;;;;;;;14.83;72.10;94591.91;5004358;28;20045;-82
2022/09/06 00:53:15;;;;;;;5.72;3.92;;;;;;;14.81;71.85;94597.59;5004555;28;20388;-82
2022/09/06 00:55:41;;;;;;;6.80;4.38;;;;;;;14.81;71.92;94594.13;5004250;28;20030;-82
2022/09/06 00:58:08;;;;;;;6.70;4.32;;;;;;;14.78;71.88;94595.56;5004372;28;20022;-82
2022/09/06 01:00:34;;;;;;;8.23;4.55;;;;;;;14.77;71.46;94606.63;5004503;28;20022;-83
2022/09/06 01:03:00;;;;;;;11.85;4.22;;;;;;;14.76;71.48;94599.69;5004262;28;20341;-82
2022/09/06 01:05:39;;;;;;;4.85;3.75;;;;;;;14.75;71.09;94606.16;5004262;28;20097;-82
2022/09/06 01:08:20;;;;;;;6.90;4.18;;;;;;;14.74;71.13;94604.59;5003952;28;20029;-82
2022/09/06 01:11:28;;;;;;;8.77;4.70;;;;;;;14.73;71.56;94606.47;5003996;28;20015;-82
2022/09/06 01:14:12;;;;;;;7.15;3.88;;;;;;;14.71;71.56;94611.38;5003544;28;20068;-82
2022/09/06 01:16:55;;;;;;;7.18;4.22;;;;;;;14.68;71.50;94609.34;5003767;28;20058;-82
2022/09/06 01:20:08;;;;;;;8.55;5.25;;;;;;;14.67;71.53;94612.34;5004028;28;20042;-83
2022/09/06 01:22:52;;;;;;;;;;;;;;;14.61;71.81;94609.84;5004052;28;20034;-81
2022/09/06 01:25:54;;;;;;;8.40;4.85;;;;;;;14.55;72.04;94605.72;5003721;28;20143;-81
2022/09/06 01:28:46;;;;;;;8.25;3.60;;;;;;;14.53;72.04;94602.56;5003863;28;20160;-82
2022/09/06 01:31:24;;;;;;;7.50;4.72;;;;;;;14.49;72.09;94608.88;5001765;28;20033;-82
2022/09/06 01:34:05;;;;;;;6.93;3.80;;;;;;;14.46;72.18;94596.91;5003691;28;20344;-82
2022/09/06 01:36:43;;;;;;;11.77;3.70;;;;;;;14.44;72.09;94597.22;5003299;28;20317;-81
2022/09/06 01:39:21;;;;;;;8.07;4.50;;;;;;;14.44;72.31;94596.44;5003273;28;20248;-83
2022/09/06 01:41:47;;;;;;;8.18;4.05;;;;;;;14.42;72.27;94585.22;5003514;28;20018;-83
2022/09/06 01:44:13;;;;;;;6.65;4.20;;;;;;;14.41;72.04;94580.97;5003471;28;20064;-81
2022/09/06 01:46:48;;;;;;;9.43;4.30;;;;;;;14.41;72.08;94578.28;5003074;28;20363;-82
2022/09/06 01:49:50;;;;;;;9.48;3.97;;;;;;;14.41;72.41;94580.97;5003339;28;20025;-83
2022/09/06 01:52:34;;;;;;;7.65;4.63;;;;;;;14.37;72.25;94582.69;5003713;28;20026;-83
2022/09/06 01:55:06;;;;;;;7.32;4.10;;;;;;;14.35;72.29;94576.88;5003521;28;20026;-83
2022/09/06 01:57:44;;;;;;;5.43;3.80;;;;;;;14.31;72.23;94576.75;5003332;28;20400;-84
2022/09/06 02:00:13;;;;;;;5.75;4.35;;;;;;;14.29;72.35;94572.78;5003027;28;20057;-83
2022/09/06 02:03:09;;;;;;;9.95;4.63;;;;;;;14.27;72.45;94573.13;5018506;28;20030;-83
2022/09/06 02:05:44;;;;;;;6.65;4.13;;;;;;;14.24;72.29;94577.22;5003200;28;20025;-83
2022/09/06 02:08:14;;;;;;;9.43;4.38;;;;;;;14.19;72.21;94566.66;5003014;28;20018;-82
2022/09/06 02:10:50;;;;;;;6.20;4.07;;;;;;;14.18;72.24;94567.75;5003092;28;20014;-81
2022/09/06 02:13:18;;;;;;;8.13;4.22;;;;;;;14.19;72.36;94573.94;5002703;28;20026;-82
2022/09/06 02:15:54;;;;;;;8.05;3.53;;;;;;;14.16;72.51;94569.97;5002735;28;20033;-80
2022/09/06 02:18:29;;;;;;;7.97;4.15;;;;;;;14.15;72.37;94563.03;5003082;28;20281;-81
2022/09/06 02:20:57;;;;;;;7.30;4.25;;;;;;;14.15;72.39;94567.63;5003001;28;20327;-81
2022/09/06 02:23:27;;;;;;;12.00;4.13;;;;;;;14.13;72.35;94565.25;5003073;28;20057;-81
2022/09/06 02:25:58;;;;;;;5.55;4.10;;;;;;;14.07;72.71;94571.09;5003081;28;20026;-82
2022/09/06 02:28:24;;;;;;;7.40;4.10;;;;;;;14.00;72.80;94571.56;5003401;28;20064;-82
2022/09/06 02:30:55;;;;;;;6.22;4.03;;;;;;;13.96;73.24;94566.06;5003278;28;20093;-82
2022/09/06 02:33:59;;;;;;;6.38;4.30;;;;;;;13.96;73.33;94574.13;5003071;28;20273;-81
2022/09/06 02:36:25;;;;;;;8.07;4.05;;;;;;;13.96;73.43;94575.97;5001199;28;20034;-82
2022/09/06 02:38:53;;;;;;;8.18;4.10;;;;;;;13.95;73.29;94575.19;5002945;28;20027;-81
2022/09/06 02:41:21;;;;;;;10.30;5.97;;;;;;;13.96;73.36;94575.97;5002839;28;20022;-81
2022/09/06 02:43:47;;;;;;;5.22;3.90;;;;;;;13.95;73.52;94575.19;5002635;28;20031;-80
2022/09/06 02:46:13;;;;;;;6.10;4.10;;;;;;;13.93;73.54;94582.00;5002828;28;20328;-80
2022/09/06 02:48:38;;;;;;;5.43;3.95;;;;;;;13.93;73.56;94579.31;5002675;28;20027;-80
2022/09/06 02:51:05;;;;;;;6.88;4.15;;;;;;;13.87;73.77;94583.25;5002579;28;20036;-80
2022/09/06 02:53:31;;;;;;;6.28;4.05;;;;;;;13.84;73.96;94590.03;5002620;28;20388;-81
2022/09/06 02:55:56;;;;;;;6.70;4.28;;;;;;;13.83;73.86;94583.09;5002530;28;20026;-81
2022/09/06 02:58:23;;;;;;;7.70;4.25;;;;;;;13.78;73.78;94581.38;5002837;28;20030;-81
2022/09/06 03:00:50;;;;;;;6.57;4.57;;;;;;;13.73;74.46;94586.09;5002744;28;20085;-81
2022/09/06 03:03:15;;;;;;;8.52;4.78;;;;;;;13.67;74.53;94577.41;5002450;28;20193;-81
2022/09/06 03:05:45;;;;;;;6.40;4.05;;;;;;;13.68;74.71;94581.69;5002556;28;20030;-81
2022/09/06 03:08:11;;;;;;;8.82;4.63;;;;;;;13.68;74.80;94579.00;5002562;28;20029;-81
2022/09/06 03:10:36;;;;;;;11.98;5.07;;;;;;;13.67;74.85;94577.41;5002468;28;20085;-82
2022/09/06 03:13:02;;;;;;;6.45;4.25;;;;;;;13.68;74.87;94581.69;5002682;28;20026;-81
2022/09/06 03:15:28;;;;;;;8.27;4.40;;;;;;;13.72;74.84;94581.81;5002765;28;20028;-81
2022/09/06 03:17:57;;;;;;;5.72;4.18;;;;;;;13.70;74.83;94574.13;5002685;28;20031;-81
2022/09/06 03:20:23;;;;;;;10.90;4.63;;;;;;;13.71;74.65;94577.56;5002848;28;20049;-82
2022/09/06 03:22:48;;;;;;;5.82;4.10;;;;;;;13.71;74.73;94578.34;5002774;28;20325;-83
2022/09/06 03:25:14;;;;;;;8.00;4.53;;;;;;;13.70;75.13;94582.16;5003857;28;20037;-83
2022/09/06 03:27:39;;;;;;;6.60;4.30;;;;;;;13.72;74.79;94577.25;5006079;28;20019;-82
2022/09/06 03:30:06;;;;;;;6.97;4.22;;;;;;;13.73;74.59;94584.19;5005998;28;20286;-82
2022/09/06 03:32:31;;;;;;;10.32;5.22;;;;;;;13.72;74.46;94582.63;5006153;28;20022;-82
2022/09/06 03:34:57;;;;;;;10.32;4.65;;;;;;;13.71;74.56;94586.38;5004689;28;20308;-82
2022/09/06 03:37:22;;;;;;;6.70;4.65;;;;;;;13.71;74.77;94586.38;5005923;28;20057;-80
2022/09/06 03:39:48;;;;;;;6.43;4.30;;;;;;;13.71;74.34;94597.09;5004387;28;20224;-83
2022/09/06 03:42:13;;;;;;;9.30;4.40;;;;;;;13.69;74.57;94599.31;5005800;28;20022;-83
2022/09/06 03:44:38;;;;;;;9.48;5.80;;;;;;;13.68;74.71;94602.28;5005860;28;20041;-83
2022/09/06 03:47:04;;;;;;;9.35;4.70;;;;;;;13.66;74.43;94597.28;5005757;28;20045;-83
2022/09/06 03:49:29;;;;;;;9.35;4.00;;;;;;;13.67;74.49;94601.50;5005920;28;20028;-83
2022/09/06 03:51:55;;;;;;;6.35;4.20;;;;;;;13.67;74.43;94601.50;5005376;28;20026;-81
2022/09/06 03:54:20;;;;;;;8.15;5.15;;;;;;;13.65;74.45;94604.50;5005447;28;20105;-82
2022/09/06 03:56:46;;;;;;;8.38;4.75;;;;;;;13.64;74.45;94612.88;5005350;28;20052;-82
2022/09/06 03:59:11;;;;;;;8.02;4.38;;;;;;;13.61;74.33;94602.78;5005217;28;20029;-82
2022/09/06 04:01:37;;;;;;;7.40;4.78;;;;;;;13.58;74.55;94604.19;5005492;28;20082;-81
2022/09/06 04:04:03;;;;;;;7.50;4.32;;;;;;;13.56;74.50;94609.06;5005252;28;20380;-82
2022/09/06 04:06:28;;;;;;;7.30;4.47;;;;;;;13.54;74.60;94608.59;5005514;28;20101;-81
2022/09/06 04:08:54;;;;;;;6.90;4.55;;;;;;;13.50;74.95;94607.66;5005455;28;20258;-82
2022/09/06 04:11:19;;;;;;;8.68;4.57;;;;;;;13.48;75.30;94607.19;5005241;28;20081;-82
2022/09/06 04:13:44;;;;;;;9.65;4.85;;;;;;;13.44;75.37;94607.00;5005155;28;20081;-82
2022/09/06 04:16:10;;;;;;;11.10;4.65;;;;;;;13.39;75.80;94604.50;5004772;28;20375;-82
2022/09/06 04:18:36;;;;;;;9.52;4.75;;;;;;;13.40;75.83;94613.31;5004603;28;20114;-80
2022/09/06 04:21:01;;;;;;;6.50;4.32;;;;;;;13.43;75.99;94599.28;5004872;28;20033;-82
2022/09/06 04:23:28;;;;;;;11.63;4.97;;;;;;;13.48;75.92;94609.06;5004896;28;20053;-81
2022/09/06 04:25:55;;;;;;;11.32;4.93;;;;;;;13.53;75.88;94611.59;5004951;28;20022;-82
2022/09/06 04:28:21;;;;;;;6.35;4.65;;;;;;;13.58;75.73;94606.88;5004740;28;20048;-82
2022/09/06 04:30:55;;;;;;;10.00;5.13;;;;;;;13.64;75.78;94604.84;5004648;28;20226;-82
2022/09/06 04:33:24;;;;;;;7.13;4.57;;;;;;;13.69;75.51;94599.31;5005170;28;20048;-82
2022/09/06 04:35:55;;;;;;;8.45;4.40;;;;;;;13.74;75.68;94601.84;5004745;28;20026;-82
2022/09/06 04:38:22;;;;;;;6.72;4.93;;;;;;;13.79;75.80;94616.97;5004736;28;20042;-83
2022/09/06 04:40:47;;;;;;;8.65;4.88;;;;;;;13.83;75.71;94605.31;5004344;28;20301;-84
2022/09/06 04:43:13;;;;;;;18.85;8.25;;;;;;;13.90;75.70;94609.41;5004830;28;20094;-84
2022/09/06 04:45:38;;;;;;;8.35;5.05;;;;;;;13.96;75.42;94608.94;5004787;28;20090;-85
2022/09/06 04:48:04;;;;;;;7.90;4.53;;;;;;;14.01;74.96;94616.03;5004773;28;20026;-84
2022/09/06 04:50:29;;;;;;;9.25;4.63;;;;;;;14.04;75.06;94602.00;5004627;28;20022;-85
2022/09/06 04:52:55;;;;;;;7.32;4.45;;;;;;;14.02;75.21;94612.25;5004405;28;20030;-85
2022/09/06 04:55:20;;;;;;;10.48;5.28;;;;;;;14.07;75.21;94598.69;5004742;28;20090;-82
2022/09/06 04:57:46;;;;;;;9.48;5.25;;;;;;;14.12;74.71;94601.19;5004260;28;20054;-83
2022/09/06 05:00:12;;;;;;;12.35;5.45;;;;;;;14.11;74.85;94604.22;5004356;28;20221;-83
2022/09/06 05:02:37;;;;;;;9.30;4.65;;;;;;;14.15;74.91;94595.22;5004314;28;20260;-83
2022/09/06 05:05:03;;;;;;;7.85;5.38;;;;;;;14.19;74.55;94598.84;5004530;28;20046;-83
2022/09/06 05:07:29;;;;;;;17.35;5.13;;;;;;;14.24;74.39;94593.28;5004142;28;20022;-81
2022/09/06 05:09:54;;;;;;;7.90;5.35;;;;;;;14.24;74.41;94600.56;5004338;28;20065;-83
2022/09/06 05:12:20;;;;;;;8.32;5.82;;;;;;;14.26;74.35;94601.03;5004327;28;20088;-83
2022/09/06 05:14:45;;;;;;;11.32;5.72;;;;;;;14.25;74.54;94594.09;5002965;28;20022;-83
2022/09/06 05:17:13;;;;;;;13.50;5.50;;;;;;;14.25;75.06;94592.19;5004116;28;20328;-83
2022/09/06 05:19:39;;;;;;;10.73;5.90;;;;;;;14.29;74.92;94591.56;5003963;28;20049;-83
2022/09/06 05:22:04;;;;;;;10.40;6.30;;;;;;;14.20;75.13;94596.94;5003743;28;20324;-83
2022/09/06 05:24:30;;;;;;;12.02;6.40;;;;;;;14.28;75.21;94600.72;5003984;28;20022;-81
2022/09/06 05:26:55;;;;;;;10.93;5.90;;;;;;;14.33;74.91;94595.97;5003678;28;20022;-81
2022/09/06 05:29:21;;;;;;;18.75;7.07;;;;;;;14.40;74.62;94598.16;5003837;28;20022;-81
2022/09/06 05:31:46;;;;;;;15.10;6.65;;;;;;;14.43;73.89;94598.31;5002271;28;20033;-82
2022/09/06 05:34:13;;;;;;;16.00;5.95;;;;;;;14.36;74.74;94600.69;5003633;28;20045;-81
2022/09/06 05:36:40;;;;;;;10.50;6.32;;;;;;;14.33;74.80;94597.84;5003854;28;20148;-81
2022/09/06 05:39:06;;;;;;;10.65;7.03;;;;;;;14.36;74.87;94594.56;5003781;28;20198;-81
2022/09/06 05:41:32;;;;;;;11.45;5.85;;;;;;;14.47;74.48;94597.69;5003497;28;20033;-81
2022/09/06 05:43:58;;;;;;;9.07;6.15;;;;;;;14.49;74.26;94603.50;5003409;28;20022;-82
2022/09/06 05:46:25;;;;;;;12.45;7.57;;;;;;;14.53;73.92;94605.25;5003555;28;20038;-82
2022/09/06 05:48:56;;;;;;;12.02;6.68;;;;;;;14.53;73.99;94610.63;5003178;28;20019;-82
2022/09/06 05:51:23;;;;;;;14.40;6.40;;;;;;;14.50;73.89;94613.16;5003595;28;20022;-82
2022/09/06 05:53:48;;;;;;;13.10;6.50;;;;;;;14.47;74.84;94611.91;5003177;28;20281;-82
2022/09/06 05:56:15;;;;;;;11.85;6.47;;;;;;;14.53;74.57;94607.13;5003432;28;20559;-81
2022/09/06 05:58:41;;;;;;;14.10;7.20;;;;;;;14.55;74.31;94603.03;5002219;28;20245;-82
2022/09/06 06:01:15;;;;;;;12.82;6.82;;;;;;;14.61;73.90;94595.63;5003333;28;20037;-83
2022/09/06 06:03:42;;;;;;;12.02;7.28;;;;;;;14.68;74.58;94597.81;5003182;28;20054;-82
2022/09/06 06:06:08;;;;;;;15.05;6.85;;;;;;;14.79;74.55;94585.63;5003464;28;20050;-82
2022/09/06 06:08:35;;;;;;;11.52;6.35;;;;;;;14.85;74.04;94595.06;5018412;28;20093;-82
2022/09/06 06:11:01;;;;;;;11.25;6.35;;;;;;;14.96;73.54;94596.31;5003334;28;20022;-83
2022/09/06 06:13:28;;;;;;;9.38;6.43;;;;;;;15.05;72.74;94588.97;5003140;28;20098;-82
2022/09/06 06:15:55;;;;;;;9.95;5.90;;;;;;;14.92;72.68;94586.50;5003175;28;20026;-81
2022/09/06 06:18:21;;;;;;;9.55;6.85;;;;;;;15.01;72.62;94592.63;5003219;28;20026;-82
2022/09/06 06:20:46;;;;;;;12.40;7.03;;;;;;;15.12;72.34;94582.31;5003084;28;20046;-81
2022/09/06 06:23:14;;;;;;;10.23;7.03;;;;;;;15.23;72.08;94578.16;5003005;28;20023;-82
2022/09/06 06:25:40;;;;;;;10.82;6.82;;;;;;;15.27;71.91;94579.09;5003034;28;20101;-82
2022/09/06 06:28:05;;;;;;;12.13;6.05;;;;;;;15.33;71.80;94583.16;5003107;28;20081;-80
2022/09/06 06:30:31;;;;;;;12.98;6.40;;;;;;;15.42;70.80;94578.50;5002984;28;20042;-79
2022/09/06 06:32:57;;;;;;;13.73;7.18;;;;;;;15.51;70.64;94578.47;5002764;28;20022;-78
2022/09/06 06:35:23;;;;;;;8.20;5.65;;;;;;;15.65;70.12;94579.00;5003121;28;20026;-80
2022/09/06 06:37:49;;;;;;;14.98;6.50;;;;;;;15.75;69.54;94572.50;5002798;28;20022;-78
2022/09/06 06:40:15;;;;;;;10.70;5.95;;;;;;;15.86;69.17;94577.47;5002752;28;20026;-78
2022/09/06 06:42:40;;;;;;;12.35;5.93;;;;;;;15.95;69.24;94573.56;5002839;28;20022;-79
2022/09/06 06:45:06;;;;;;;9.52;6.15;;;;;;;16.04;67.43;94574.28;5002943;28;20346;-79
2022/09/06 06:47:32;;;;;;;13.57;6.85;;;;;;;16.15;67.12;94581.97;5002517;28;20046;-79
2022/09/06 06:49:57;;;;;;;10.82;5.95;;;;;;;16.19;67.42;94586.34;5002795;28;20030;-79
2022/09/06 06:52:23;;;;;;;13.20;6.00;;;;;;;16.31;67.03;94582.13;5002904;28;20061;-79
2022/09/06 06:54:48;;;;;;;13.30;6.35;;;;;;;16.40;67.03;94577.44;5002843;28;20065;-79
2022/09/06 06:57:14;;;;;;;13.43;5.40;;;;;;;16.48;67.11;94578.47;5002697;28;20440;-79
2022/09/06 06:59:39;;;;;;;11.05;5.72;;;;;;;16.61;66.67;94583.56;5004462;28;20014;-87
2022/09/06 07:02:05;;;;;;;10.15;5.78;;;;;;;16.72;65.67;94580.44;5006533;28;20018;-85
2022/09/06 07:04:31;;;;;;;15.98;5.30;;;;;;;16.83;65.70;94581.59;5006280;28;20065;-85
2022/09/06 07:06:57;;;;;;;17.13;7.07;;;;;;;16.98;65.10;94588.25;5005346;28;20026;-85
2022/09/06 07:09:22;;;;;;;13.10;6.53;;;;;;;17.08;64.55;94577.03;5006275;28;20022;-85
2022/09/06 07:11:48;;;;;;;15.23;5.70;;;;;;;17.18;64.16;94587.34;5006271;28;20045;-85
2022/09/06 07:14:17;;;;;;;11.63;5.20;;;;;;;17.30;64.09;94585.75;5006392;28;20019;-85
2022/09/06 07:16:43;;;;;;;14.07;5.07;;;;;;;17.38;63.04;94591.06;5005123;28;20030;-85
2022/09/06 07:19:09;;;;;;;11.00;5.28;;;;;;;17.45;63.32;94591.25;5005999;28;20022;-85
2022/09/06 07:21:34;;;;;;;15.52;6.65;;;;;;;17.55;63.42;94589.25;5006211;28;20216;-86
2022/09/06 07:24:00;;;;;;;10.98;5.20;;;;;;;17.66;63.12;94595.72;5006436;28;20344;-87
2022/09/06 07:26:28;;;;;;;10.57;5.43;;;;;;;17.75;62.59;94582.13;5006246;28;20031;-88
2022/09/06 07:28:56;;;;;;;18.23;6.20;;;;;;;17.90;62.38;94594.13;5004842;28;20022;-77
2022/09/06 07:31:22;;;;;;;14.02;5.65;;;;;;;18.01;62.07;94598.72;5006034;28;20026;-84
2022/09/06 07:33:49;;;;;;;12.32;5.82;;;;;;;18.09;61.92;94594.28;5005883;28;20101;-85
2022/09/06 07:36:15;;;;;;;11.95;5.68;;;;;;;18.19;61.17;94599.19;5005879;28;20034;-84
2022/09/06 07:38:40;;;;;;;11.82;6.00;;;;;;;18.28;61.01;94592.88;5005792;28;20053;-83
2022/09/06 07:41:09;;;;;;;10.35;5.75;;;;;;;18.35;60.95;94584.97;5020895;28;20317;-83
2022/09/06 07:43:35;;;;;;;17.35;6.00;;;;;;;18.43;60.71;94600.22;5005725;28;20101;-84
2022/09/06 07:46:06;;;;;;;11.55;5.50;;;;;;;18.51;60.27;94602.00;5005350;28;20073;-85
2022/09/06 07:48:34;;;;;;;12.43;6.90;;;;;;;18.57;59.47;94603.31;5005776;28;20023;-84
2022/09/06 07:51:08;;;;;;;16.02;6.45;;;;;;;18.50;59.46;94591.53;5005506;28;20026;-84
2022/09/06 07:53:34;;;;;;;10.32;6.05;;;;;;;18.49;59.07;94588.06;5005596;28;20033;-85
2022/09/06 07:56:02;;;;;;;18.15;6.22;;;;;;;18.48;59.20;94591.91;5005449;28;20021;-85
2022/09/06 07:58:29;;;;;;;9.75;5.32;;;;;;;18.49;59.56;94577.25;5005495;28;20029;-84
2022/09/06 08:01:25;;;;;;;22.80;5.90;;;;;;;18.58;59.21;94577.91;5005685;28;20189;-85
2022/09/06 08:03:50;;;;;;;15.57;5.90;;;;;;;18.55;59.22;94583.97;5005676;28;20053;-84
2022/09/06 08:06:16;;;;;;;14.95;6.68;;;;;;;18.63;59.62;94583.03;5005435;28;20228;-84
2022/09/06 08:08:41;;;;;;;15.68;6.28;;;;;;;18.75;59.86;94584.88;5005300;28;20026;-83
2022/09/06 08:11:07;;;;;;;15.10;6.03;;;;;;;18.91;59.34;94582.22;5003636;28;20041;-84
2022/09/06 08:13:36;;;;;;;9.30;4.95;;;;;;;19.03;59.02;94587.53;5005462;28;20030;-84
2022/09/06 08:16:06;;;;;;;13.05;5.63;;;;;;;19.17;58.17;94580.91;5005354;28;20056;-83
2022/09/06 08:18:33;;;;;;;10.25;5.40;;;;;;;19.28;57.81;94579.25;5005185;28;20380;-83
2022/09/06 08:21:27;;;;;;;8.27;5.05;;;;;;;19.37;56.54;94579.03;5004065;28;20052;-82
2022/09/06 08:23:57;;;;;;;13.90;4.95;;;;;;;19.41;56.74;94583.38;5003673;28;20125;-75
2022/09/06 08:26:24;;;;;;;13.02;6.13;;;;;;;19.52;56.65;94582.84;5005093;28;20018;-82
2022/09/06 08:28:59;;;;;;;14.48;5.95;;;;;;;19.65;56.58;94581.63;5004981;28;20014;-81
2022/09/06 08:31:26;;;;;;;6.97;4.85;;;;;;;19.75;55.21;94578.38;5004937;28;20026;-81
2022/09/06 08:33:52;;;;;;;12.38;4.65;;;;;;;19.84;54.21;94572.75;5005166;28;20077;-82
2022/09/06 08:36:18;;;;;;;13.07;5.20;;;;;;;19.94;54.12;94571.44;5004600;28;20296;-81
2022/09/06 08:38:44;;;;;;;18.08;4.82;;;;;;;20.02;53.19;94573.13;5004677;28;20029;-81
2022/09/06 08:41:12;;;;;;;7.82;4.35;;;;;;;20.09;53.49;94573.28;5004728;28;20018;-82
2022/09/06 08:43:55;;;;;;;9.98;4.65;;;;;;;20.18;53.17;94560.31;5004666;28;20033;-82
2022/09/06 08:46:30;;;;;;;6.95;4.55;;;;;;;20.28;52.00;94563.59;5004669;28;20114;-81
2022/09/06 08:48:55;;;;;;;10.35;5.07;;;;;;;20.27;51.91;94551.19;5004486;28;20018;-81
2022/09/06 08:51:27;;;;;;;7.47;4.45;;;;;;;20.14;52.26;94556.75;5004892;28;20209;-83
2022/09/06 08:53:58;;;;;;;10.10;4.70;;;;;;;20.18;52.02;94546.00;5004659;28;20033;-82
2022/09/06 08:56:31;;;;;;;10.10;5.05;;;;;;;20.24;51.59;94548.06;5004691;28;20097;-81
2022/09/06 08:59:10;;;;;;;;;;;;;;;20.28;50.88;94548.13;5004972;28;20030;-81
2022/09/06 09:02:10;;;;;;;15.63;4.35;;;;;;;20.39;50.39;94543.72;5004664;28;19926;-82
2022/09/06 09:04:38;;;;;;;7.97;3.70;;;;;;;20.44;50.31;94539.94;5004405;28;20022;-81
2022/09/06 09:07:35;;;;;;;7.88;3.53;;;;;;;20.59;50.46;94536.34;5004224;28;20018;-81
2022/09/06 09:10:26;;;;;;;11.68;3.80;;;;;;;20.77;49.71;94535.88;4998713;28;20054;-82
2022/09/06 09:12:51;;;;;;;7.03;4.00;;;;;;;20.93;49.43;94525.69;5004385;28;20097;-81
2022/09/06 09:15:20;;;;;;;7.97;4.13;;;;;;;20.99;48.51;94521.53;5004029;28;20030;-82
2022/09/06 09:17:49;;;;;;;6.10;3.63;;;;;;;21.09;48.57;94517.44;5004178;28;20026;-82
2022/09/06 09:20:15;;;;;;;12.23;3.95;;;;;;;21.22;48.68;94512.59;5004152;28;20034;-82
2022/09/06 09:22:42;;;;;;;9.60;4.53;;;;;;;21.33;48.92;94508.13;5003123;28;20089;-82
2022/09/06 09:25:15;;;;;;;11.40;4.57;;;;;;;21.49;47.12;94509.91;5004066;28;20038;-82
2022/09/06 09:27:41;;;;;;;5.55;3.63;;;;;;;21.55;46.42;94513.84;5003788;28;20014;-82
2022/09/06 09:30:07;;;;;;;6.25;3.58;;;;;;;21.50;45.99;94508.75;5003757;28;20096;-83
2022/09/06 09:32:41;;;;;;;9.52;3.00;;;;;;;21.61;45.42;94512.38;5002475;28;20099;-82
2022/09/06 09:35:35;;;;;;;6.90;4.13;;;;;;;21.72;46.05;94499.75;5003557;28;20316;-82
2022/09/06 09:38:11;;;;;;;8.30;4.63;;;;;;;21.79;45.94;94499.06;5003664;28;20033;-82
2022/09/06 09:40:49;;;;;;;9.18;4.32;;;;;;;21.82;45.46;94493.69;5003533;28;20061;-82
2022/09/06 09:43:20;;;;;;;6.22;3.63;;;;;;;21.83;45.10;94489.78;5003444;28;20022;-82
2022/09/06 09:45:56;;;;;;;10.32;4.05;;;;;;;21.90;44.61;94496.47;5003394;28;20349;-83
2022/09/06 09:48:26;;;;;;;8.48;4.43;;;;;;;21.89;45.33;94486.78;5003734;28;20075;-83
2022/09/06 09:50:52;;;;;;;10.55;4.32;;;;;;;21.87;45.81;94494.50;5018784;28;20030;-81
2022/09/06 09:53:21;;;;;;;6.70;4.20;;;;;;;22.02;45.37;94490.78;5003479;28;20029;-82
2022/09/06 09:55:53;;;;;;;6.07;4.13;;;;;;;22.14;45.66;94487.81;5003489;28;20045;-82
2022/09/06 09:58:33;;;;;;;;;;;;;;;22.11;43.66;94485.84;5003641;28;20064;-82
2022/09/06 10:01:16;;;;;;;7.70;3.50;;;;;;;22.24;44.58;94487.19;5003494;28;19906;-82
2022/09/06 10:03:42;;;;;;;4.40;3.25;;;;;;;22.36;43.48;94475.28;5018630;28;20212;-82
2022/09/06 10:06:12;;;;;;;7.78;4.47;;;;;;;22.40;42.35;94478.03;5003302;28;20029;-82
2022/09/06 10:08:41;;;;;;;8.55;3.90;;;;;;;22.36;42.70;94474.50;5003333;28;20042;-82
2022/09/06 10:11:11;;;;;;;5.28;3.55;;;;;;;22.37;43.83;94471.41;5003392;28;20022;-79
2022/09/06 10:13:37;;;;;;;15.23;4.30;;;;;;;22.31;43.96;94472.09;5003324;28;20022;-84
2022/09/06 10:16:03;;;;;;;6.88;3.75;;;;;;;22.39;44.67;94468.34;5003212;28;20029;-82
2022/09/06 10:18:40;;;;;;;6.72;4.07;;;;;;;22.58;43.92;94473.53;5003158;28;20030;-81
2022/09/06 10:21:22;;;;;;;9.43;3.47;;;;;;;22.72;42.52;94470.19;5003783;28;20022;-81
2022/09/06 10:24:10;;;;;;;;;;;;;;;22.78;42.26;94462.47;5004423;28;20068;-81
2022/09/06 10:26:42;;;;;;;5.97;3.60;;;;;;;22.77;41.68;94469.03;5003840;28;20132;-83
2022/09/06 10:29:11;;;;;;;8.00;4.15;;;;;;;22.78;42.05;94463.25;5003208;28;20022;-82
2022/09/06 10:32:04;;;;;;;11.38;4.18;;;;;;;22.79;42.87;94469.44;5003102;28;20030;-85
2022/09/06 10:34:48;;;;;;;8.20;4.00;;;;;;;22.84;42.12;94453.59;5004609;28;20309;-82
2022/09/06 10:37:40;;;;;;;6.80;3.35;;;;;;;22.96;40.31;94452.50;5007168;28;20018;-82
2022/09/06 10:40:37;;;;;;;11.57;4.00;;;;;;;23.09;38.59;94452.22;5007349;28;20267;-82
2022/09/06 10:43:07;;;;;;;7.45;3.50;;;;;;;23.13;39.78;94444.88;4999654;28;20026;-82
2022/09/06 10:45:35;;;;;;;7.00;3.40;;;;;;;23.12;40.04;94451.47;5006924;28;20026;-81
2022/09/06 10:48:40;;;;;;;4.80;3.35;;;;;;;23.18;39.75;94448.03;5006770;28;20149;-82
2022/09/06 10:51:20;;;;;;;5.38;2.92;;;;;;;23.30;38.21;94448.84;5006431;28;20034;-82
2022/09/06 10:54:07;;;;;;;6.22;3.22;;;;;;;23.28;38.21;94449.22;5022041;28;20030;-82
2022/09/06 10:56:38;;;;;;;6.88;3.42;;;;;;;23.33;40.22;94451.59;5006857;28;20093;-82
2022/09/06 10:59:19;;;;;;;8.90;2.63;;;;;;;23.36;38.57;94445.38;5006727;28;20026;-83
2022/09/06 11:01:57;;;;;;;4.57;3.33;;;;;;;23.33;38.96;94442.66;5006737;28;20233;-82
2022/09/06 11:04:44;;;;;;;5.82;3.22;;;;;;;23.37;40.36;94441.53;5006799;28;20313;-82
2022/09/06 11:07:16;;;;;;;4.65;2.70;;;;;;;23.34;37.63;94439.53;5006697;28;20085;-83
2022/09/06 11:09:49;;;;;;;5.13;2.67;;;;;;;23.17;40.02;94429.38;5006646;28;20093;-83
2022/09/06 11:12:31;;;;;;;7.47;2.80;;;;;;;23.17;38.32;94434.81;5006422;28;20037;-81
2022/09/06 11:14:59;;;;;;;22.27;2.92;;;;;;;23.10;38.62;94435.53;5006525;28;20092;-81
2022/09/06 11:17:41;;;;;;;6.45;2.63;;;;;;;23.13;41.79;94439.44;5006500;28;20228;-82
2022/09/06 11:20:23;;;;;;;11.80;3.10;;;;;;;23.21;39.54;94438.31;5006274;28;20026;-82
2022/09/06 11:23:03;;;;;;;6.40;2.97;;;;;;;23.25;38.28;94430.97;5006343;28;20069;-82
2022/09/06 11:25:34;;;;;;;5.55;2.90;;;;;;;23.28;39.11;94438.34;5006115;28;20388;-81
2022/09/06 11:28:06;;;;;;;8.25;3.03;;;;;;;23.45;39.35;94434.19;5006257;28;20022;-82
2022/09/06 11:30:32;;;;;;;6.80;2.93;;;;;;;23.57;40.40;94425.69;5006312;28;20034;-82
2022/09/06 11:33:07;;;;;;;4.22;2.67;;;;;;;23.74;37.51;94426.13;5006024;28;20049;-81
2022/09/06 11:35:33;;;;;;;7.45;2.50;;;;;;;23.93;36.41;94428.53;5006134;28;20030;-81
2022/09/06 11:38:14;;;;;;;5.88;2.22;;;;;;;24.12;35.49;94421.19;5006103;28;20253;-81
2022/09/06 11:40:43;;;;;;;4.20;2.40;;;;;;;24.23;35.82;94428.22;5005907;28;20097;-81
2022/09/06 11:43:29;;;;;;;6.07;2.55;;;;;;;24.43;34.47;94422.44;5005819;28;20045;-81
2022/09/06 11:45:54;;;;;;;4.80;2.40;;;;;;;24.65;36.15;94417.00;4997365;28;20045;-81
2022/09/06 11:48:23;;;;;;;6.63;2.50;;;;;;;24.72;34.81;94403.38;5006085;28;20018;-81